Time;durP1;ratioP1;P1;durP2;ratioP2;P2;SDS_P1;SDS_P2;PMS_P1;PMS_P2;Temp;Humidity;BMP_temperature;BMP_pressure;BME280_temperature;BME280_humidity;BME280_pressure;Samples;Min_cycle;Max_cycle;Signal;HPM_P1;HPM_P2
2023/05/25 00:00:26;;;;;;;5.97;3.97;;;;;;;;;;5055817;28;20463;-57
2023/05/25 00:02:54;;;;;;;6.50;4.37;;;;;;;;;;5056072;28;20453;-58
2023/05/25 00:05:26;;;;;;;7.87;5.07;;;;;;;;;;5055961;28;20510;-58
2023/05/25 00:07:53;;;;;;;9.57;4.97;;;;;;;;;;5055972;28;20487;-57
2023/05/25 00:10:20;;;;;;;5.43;4.90;;;;;;;;;;5056001;28;20534;-57
2023/05/25 00:12:47;;;;;;;7.67;4.50;;;;;;;;;;5055778;28;20525;-57
2023/05/25 00:15:15;;;;;;;7.83;5.00;;;;;;;;;;5055743;28;20506;-58
2023/05/25 00:17:42;;;;;;;6.20;4.90;;;;;;;;;;5055659;28;20451;-58
2023/05/25 00:20:09;;;;;;;6.10;4.77;;;;;;;;;;5055238;28;20787;-58
2023/05/25 00:22:38;;;;;;;5.30;4.20;;;;;;;;;;5055024;28;20448;-58
2023/05/25 00:25:06;;;;;;;6.60;4.37;;;;;;;;;;5055635;28;20453;-57
2023/05/25 00:27:34;;;;;;;6.40;4.80;;;;;;;;;;5055612;28;20419;-58
2023/05/25 00:30:01;;;;;;;8.70;4.90;;;;;;;;;;5055582;28;20449;-58
2023/05/25 00:32:28;;;;;;;6.73;3.90;;;;;;;;;;5055332;28;20476;-58
2023/05/25 00:34:55;;;;;;;8.77;4.80;;;;;;;;;;5055777;28;20455;-62
2023/05/25 00:37:23;;;;;;;6.13;5.00;;;;;;;;;;5055450;28;20514;-58
2023/05/25 00:39:51;;;;;;;7.80;4.60;;;;;;;;;;5055633;28;20469;-58
2023/05/25 00:42:18;;;;;;;7.97;4.70;;;;;;;;;;5055500;28;20455;-59
2023/05/25 00:44:47;;;;;;;8.53;6.57;;;;;;;;;;5055378;28;20448;-58
2023/05/25 00:47:15;;;;;;;8.13;5.63;;;;;;;;;;5055207;28;20488;-61
2023/05/25 00:49:42;;;;;;;9.07;4.97;;;;;;;;;;5055238;28;20456;-59
2023/05/25 00:52:12;;;;;;;9.60;4.93;;;;;;;;;;5055305;28;20488;-58
2023/05/25 00:54:39;;;;;;;7.20;4.80;;;;;;;;;;5055116;28;20476;-58
2023/05/25 00:57:08;;;;;;;6.97;4.63;;;;;;;;;;5054932;28;20440;-58
2023/05/25 00:59:39;;;;;;;9.43;5.40;;;;;;;;;;5054546;28;20488;-58
2023/05/25 01:02:08;;;;;;;7.23;5.23;;;;;;;;;;5055325;28;20857;-58
2023/05/25 01:04:37;;;;;;;7.73;5.03;;;;;;;;;;5055237;28;20506;-58
2023/05/25 01:07:05;;;;;;;9.50;5.30;;;;;;;;;;5055037;28;20855;-58
2023/05/25 01:09:33;;;;;;;8.37;5.30;;;;;;;;;;5055078;28;20456;-58
2023/05/25 01:12:01;;;;;;;7.00;5.10;;;;;;;;;;5054700;28;20483;-59
2023/05/25 01:14:30;;;;;;;9.03;5.47;;;;;;;;;;5055011;28;20931;-57
2023/05/25 01:16:58;;;;;;;7.97;5.10;;;;;;;;;;5054921;28;20476;-58
2023/05/25 01:19:26;;;;;;;11.83;5.30;;;;;;;;;;5054912;28;20468;-61
2023/05/25 01:21:58;;;;;;;10.37;5.30;;;;;;;;;;5054663;28;20786;-58
2023/05/25 01:24:30;;;;;;;8.77;5.00;;;;;;;;;;5054761;28;20456;-58
2023/05/25 01:27:00;;;;;;;10.27;5.93;;;;;;;;;;5054460;28;20491;-58
2023/05/25 01:29:28;;;;;;;6.57;5.50;;;;;;;;;;5054340;28;20448;-58
2023/05/25 01:31:56;;;;;;;6.97;4.97;;;;;;;;;;5053811;28;20570;-58
2023/05/25 01:34:24;;;;;;;11.10;5.90;;;;;;;;;;5054190;28;20453;-58
2023/05/25 01:36:51;;;;;;;6.50;5.40;;;;;;;;;;5054604;28;20449;-58
2023/05/25 01:39:22;;;;;;;6.77;5.80;;;;;;;;;;5054103;28;20452;-58
2023/05/25 01:41:50;;;;;;;11.00;5.43;;;;;;;;;;5054133;28;20428;-58
2023/05/25 01:44:17;;;;;;;8.30;5.33;;;;;;;;;;5054047;28;20456;-58
2023/05/25 01:46:44;;;;;;;6.60;5.13;;;;;;;;;;5054194;28;20871;-58
2023/05/25 01:49:15;;;;;;;10.23;5.83;;;;;;;;;;5053997;28;20486;-58
2023/05/25 01:51:45;;;;;;;6.87;5.63;;;;;;;;;;5053943;28;20507;-60
2023/05/25 01:54:14;;;;;;;11.30;6.27;;;;;;;;;;5053912;28;20784;-59
2023/05/25 01:56:46;;;;;;;9.60;4.83;;;;;;;;;;5054041;28;20808;-56
2023/05/25 01:59:14;;;;;;;8.97;6.13;;;;;;;;;;5054086;28;20451;-58
2023/05/25 02:01:42;;;;;;;7.70;5.40;;;;;;;;;;5053861;28;20485;-58
2023/05/25 02:04:10;;;;;;;9.30;5.67;;;;;;;;;;5053764;28;20449;-59
2023/05/25 02:06:37;;;;;;;6.37;5.40;;;;;;;;;;5053776;28;20451;-58
2023/05/25 02:09:04;;;;;;;5.60;5.10;;;;;;;;;;5053890;28;20449;-57
2023/05/25 02:11:31;;;;;;;10.50;6.10;;;;;;;;;;5053573;28;20806;-58
2023/05/25 02:14:00;;;;;;;6.57;5.47;;;;;;;;;;5053803;28;20471;-58
2023/05/25 02:16:28;;;;;;;10.23;5.90;;;;;;;;;;5053744;28;20472;-57
2023/05/25 02:18:57;;;;;;;8.20;5.70;;;;;;;;;;5053716;28;20807;-59
2023/05/25 02:21:24;;;;;;;8.07;5.37;;;;;;;;;;5053388;28;20547;-57
2023/05/25 02:23:51;;;;;;;8.10;5.90;;;;;;;;;;5053408;28;20777;-58
2023/05/25 02:26:18;;;;;;;7.03;6.10;;;;;;;;;;5053696;28;20444;-58
2023/05/25 02:28:45;;;;;;;8.77;6.20;;;;;;;;;;5053397;28;20579;-57
2023/05/25 02:31:14;;;;;;;7.50;5.60;;;;;;;;;;5053285;28;20454;-58
2023/05/25 02:33:42;;;;;;;9.23;5.67;;;;;;;;;;5053726;28;20452;-58
2023/05/25 02:36:09;;;;;;;7.07;5.40;;;;;;;;;;5053502;28;20457;-58
2023/05/25 02:38:36;;;;;;;15.03;6.80;;;;;;;;;;5053543;28;20819;-56
2023/05/25 02:41:04;;;;;;;11.20;6.17;;;;;;;;;;5053472;28;20960;-58
2023/05/25 02:43:31;;;;;;;8.50;5.70;;;;;;;;;;5053969;28;20488;-58
2023/05/25 02:45:58;;;;;;;6.60;5.73;;;;;;;;;;5057122;28;20453;-58
2023/05/25 02:48:27;;;;;;;9.17;6.03;;;;;;;;;;5057585;28;20451;-58
2023/05/25 02:50:54;;;;;;;6.50;5.40;;;;;;;;;;5057688;28;20482;-59
2023/05/25 02:53:21;;;;;;;11.77;6.47;;;;;;;;;;5057298;28;20481;-58
2023/05/25 02:55:49;;;;;;;9.63;6.77;;;;;;;;;;5057354;28;20445;-58
2023/05/25 02:58:16;;;;;;;10.00;6.10;;;;;;;;;;5057267;28;20918;-59
2023/05/25 03:00:43;;;;;;;8.70;6.00;;;;;;;;;;5057315;28;20502;-57
2023/05/25 03:03:10;;;;;;;10.37;6.00;;;;;;;;;;5057180;28;20866;-58
2023/05/25 03:05:39;;;;;;;10.87;6.57;;;;;;;;;;5056988;28;20445;-58
2023/05/25 03:08:06;;;;;;;11.70;6.30;;;;;;;;;;5057134;28;20445;-58
2023/05/25 03:10:34;;;;;;;7.93;5.83;;;;;;;;;;5056951;28;20859;-59
2023/05/25 03:13:01;;;;;;;13.27;6.47;;;;;;;;;;5056367;28;20487;-58
2023/05/25 03:15:28;;;;;;;10.83;7.10;;;;;;;;;;5057051;28;20452;-59
2023/05/25 03:17:59;;;;;;;9.43;5.80;;;;;;;;;;5057115;28;20531;-58
2023/05/25 03:20:27;;;;;;;7.60;6.07;;;;;;;;;;5056965;28;20444;-58
2023/05/25 03:22:55;;;;;;;7.70;5.83;;;;;;;;;;5056663;28;20449;-58
2023/05/25 03:25:26;;;;;;;7.50;5.93;;;;;;;;;;5056730;28;20447;-59
2023/05/25 03:27:53;;;;;;;7.27;5.40;;;;;;;;;;5056767;28;20931;-58
2023/05/25 03:30:21;;;;;;;8.27;6.20;;;;;;;;;;5056561;28;20484;-60
2023/05/25 03:32:48;;;;;;;7.37;5.57;;;;;;;;;;5056464;28;20480;-58
2023/05/25 03:35:15;;;;;;;10.40;7.07;;;;;;;;;;5056702;28;20427;-58
2023/05/25 03:37:47;;;;;;;9.77;6.03;;;;;;;;;;5056535;28;20448;-58
2023/05/25 03:40:16;;;;;;;7.90;6.50;;;;;;;;;;5056158;28;20480;-58
2023/05/25 03:42:43;;;;;;;9.70;6.17;;;;;;;;;;5056493;28;20867;-58
2023/05/25 03:45:13;;;;;;;8.30;5.67;;;;;;;;;;5056618;28;20452;-58
2023/05/25 03:47:40;;;;;;;9.23;6.90;;;;;;;;;;5056351;28;20475;-59
2023/05/25 03:50:15;;;;;;;6.43;5.60;;;;;;;;;;5056208;28;20445;-59
2023/05/25 03:52:42;;;;;;;6.30;5.33;;;;;;;;;;5055719;28;20831;-59
2023/05/25 03:55:24;;;;;;;8.23;5.90;;;;;;;;;;5055191;28;20485;-59
2023/05/25 03:57:54;;;;;;;8.10;6.00;;;;;;;;;;5055649;28;20456;-59
2023/05/25 04:00:24;;;;;;;8.20;5.43;;;;;;;;;;5055599;28;20448;-58
2023/05/25 04:02:58;;;;;;;9.00;6.40;;;;;;;;;;5055841;28;20597;-59
2023/05/25 04:05:26;;;;;;;5.70;5.20;;;;;;;;;;5056136;28;20452;-58
2023/05/25 04:07:58;;;;;;;10.33;6.07;;;;;;;;;;5055972;28;20448;-59
2023/05/25 04:10:25;;;;;;;9.07;6.20;;;;;;;;;;5055910;28;20547;-59
2023/05/25 04:12:56;;;;;;;8.80;5.77;;;;;;;;;;5055765;28;20472;-59
2023/05/25 04:15:29;;;;;;;8.60;6.27;;;;;;;;;;5055830;28;20779;-57
2023/05/25 04:17:58;;;;;;;7.63;6.13;;;;;;;;;;5055926;28;20433;-61
2023/05/25 04:20:25;;;;;;;7.97;7.10;;;;;;;;;;5055762;28;20441;-61
2023/05/25 04:22:52;;;;;;;6.50;5.90;;;;;;;;;;5055466;28;20510;-58
2023/05/25 04:25:19;;;;;;;8.57;5.90;;;;;;;;;;5055475;28;20451;-58
2023/05/25 04:27:47;;;;;;;6.60;5.30;;;;;;;;;;5055645;28;20456;-58
2023/05/25 04:30:16;;;;;;;7.63;5.80;;;;;;;;;;5055410;28;20527;-59
2023/05/25 04:32:44;;;;;;;8.40;6.50;;;;;;;;;;5055728;28;20843;-58
2023/05/25 04:35:13;;;;;;;8.30;5.80;;;;;;;;;;5055542;28;20455;-59
2023/05/25 04:37:45;;;;;;;15.23;10.43;;;;;;;;;;5055118;28;20423;-59
2023/05/25 04:40:13;;;;;;;9.87;6.60;;;;;;;;;;5055297;28;20459;-58
2023/05/25 04:42:40;;;;;;;6.50;5.90;;;;;;;;;;5054829;28;20534;-60
2023/05/25 04:45:09;;;;;;;5.80;5.20;;;;;;;;;;5054851;28;21035;-57
2023/05/25 04:47:41;;;;;;;6.93;5.50;;;;;;;;;;5055052;28;20497;-59
2023/05/25 04:50:10;;;;;;;5.70;5.10;;;;;;;;;;5055108;28;20936;-59
2023/05/25 04:52:37;;;;;;;6.90;6.00;;;;;;;;;;5054822;28;20455;-58
2023/05/25 04:55:07;;;;;;;9.20;5.80;;;;;;;;;;5054691;28;20932;-59
2023/05/25 04:57:34;;;;;;;8.83;5.57;;;;;;;;;;5055111;28;20452;-57
2023/05/25 05:00:02;;;;;;;5.93;5.13;;;;;;;;;;5054680;28;20449;-57
2023/05/25 05:02:31;;;;;;;10.63;6.60;;;;;;;;;;5054748;28;20874;-58
2023/05/25 05:05:04;;;;;;;7.73;6.40;;;;;;;;;;5054570;28;20451;-58
2023/05/25 05:07:33;;;;;;;8.67;6.37;;;;;;;;;;5053632;28;20448;-60
2023/05/25 05:10:00;;;;;;;10.47;6.53;;;;;;;;;;5054415;28;20581;-57
2023/05/25 05:12:28;;;;;;;7.73;6.20;;;;;;;;;;5054351;28;20448;-58
2023/05/25 05:14:57;;;;;;;12.00;6.80;;;;;;;;;;5054407;28;20481;-60
2023/05/25 05:17:38;;;;;;;9.40;6.63;;;;;;;;;;5054325;28;20824;-58
2023/05/25 05:20:08;;;;;;;8.07;6.80;;;;;;;;;;5054241;28;20924;-59
2023/05/25 05:22:35;;;;;;;9.30;6.10;;;;;;;;;;5054219;28;20484;-59
2023/05/25 05:25:02;;;;;;;9.13;6.30;;;;;;;;;;5054134;28;20479;-59
2023/05/25 05:27:29;;;;;;;11.67;6.87;;;;;;;;;;5053971;28;20511;-58
2023/05/25 05:29:56;;;;;;;10.73;6.33;;;;;;;;;;5053897;28;20454;-59
2023/05/25 05:32:23;;;;;;;7.20;5.90;;;;;;;;;;5053909;28;20458;-57
2023/05/25 05:34:50;;;;;;;7.27;5.80;;;;;;;;;;5053917;28;21039;-59
2023/05/25 05:37:18;;;;;;;7.10;5.70;;;;;;;;;;5054160;28;20457;-58
2023/05/25 05:39:45;;;;;;;9.20;5.77;;;;;;;;;;5053897;28;20454;-58
2023/05/25 05:42:13;;;;;;;11.70;7.03;;;;;;;;;;5053990;28;20450;-58
2023/05/25 05:44:40;;;;;;;7.23;6.27;;;;;;;;;;5053815;28;20464;-58
2023/05/25 05:47:07;;;;;;;9.70;6.70;;;;;;;;;;5053385;28;20457;-59
2023/05/25 05:49:34;;;;;;;11.83;6.13;;;;;;;;;;5053573;28;20448;-61
2023/05/25 05:52:01;;;;;;;10.90;6.73;;;;;;;;;;5053415;28;20449;-59
2023/05/25 05:54:29;;;;;;;9.23;5.37;;;;;;;;;;5053045;28;20620;-59
2023/05/25 05:56:56;;;;;;;13.90;6.17;;;;;;;;;;5053491;28;20533;-58
2023/05/25 05:59:23;;;;;;;11.53;6.17;;;;;;;;;;5053335;28;20810;-58
2023/05/25 06:01:50;;;;;;;8.53;5.40;;;;;;;;;;5053203;28;20938;-58
2023/05/25 06:04:17;;;;;;;8.13;5.53;;;;;;;;;;5053375;28;20482;-58
2023/05/25 06:06:44;;;;;;;13.13;6.37;;;;;;;;;;5053649;28;20462;-58
2023/05/25 06:09:12;;;;;;;12.67;7.07;;;;;;;;;;5053046;28;20887;-58
2023/05/25 06:11:40;;;;;;;9.27;5.83;;;;;;;;;;5053105;28;20463;-58
2023/05/25 06:14:07;;;;;;;10.10;7.17;;;;;;;;;;5052865;28;20474;-59
2023/05/25 06:16:35;;;;;;;10.90;6.30;;;;;;;;;;5052961;28;20538;-58
2023/05/25 06:19:02;;;;;;;11.63;6.10;;;;;;;;;;5053080;28;20459;-58
2023/05/25 06:21:29;;;;;;;8.00;6.30;;;;;;;;;;5052987;28;20942;-58
2023/05/25 06:23:56;;;;;;;8.30;5.80;;;;;;;;;;5052882;28;20970;-58
2023/05/25 06:26:23;;;;;;;9.67;6.27;;;;;;;;;;5052975;28;20450;-58
2023/05/25 06:28:52;;;;;;;13.00;8.27;;;;;;;;;;5052856;28;20461;-59
2023/05/25 06:31:19;;;;;;;9.97;5.40;;;;;;;;;;5052943;28;20864;-59
2023/05/25 06:33:46;;;;;;;8.47;5.70;;;;;;;;;;5052831;28;20484;-59
2023/05/25 06:36:13;;;;;;;10.23;6.00;;;;;;;;;;5053139;28;20791;-59
2023/05/25 06:38:41;;;;;;;9.93;6.40;;;;;;;;;;5052768;28;20961;-59
2023/05/25 06:41:08;;;;;;;12.17;5.50;;;;;;;;;;5052819;28;20482;-59
2023/05/25 06:43:35;;;;;;;10.67;6.40;;;;;;;;;;5052990;28;20443;-59
2023/05/25 06:46:04;;;;;;;8.73;5.37;;;;;;;;;;5052891;28;20459;-59
2023/05/25 06:48:31;;;;;;;10.03;5.63;;;;;;;;;;5052732;28;20456;-59
2023/05/25 06:50:58;;;;;;;10.17;5.63;;;;;;;;;;5052635;28;20958;-59
2023/05/25 06:53:25;;;;;;;11.53;5.20;;;;;;;;;;5052576;28;20940;-58
2023/05/25 06:55:55;;;;;;;8.13;5.57;;;;;;;;;;5052455;28;20839;-59
2023/05/25 06:58:22;;;;;;;7.93;4.57;;;;;;;;;;5052562;28;20532;-57
2023/05/25 07:00:49;;;;;;;15.10;5.73;;;;;;;;;;5052689;28;20861;-59
2023/05/25 07:03:17;;;;;;;10.03;4.63;;;;;;;;;;5052545;28;20550;-58
2023/05/25 07:05:44;;;;;;;8.63;5.10;;;;;;;;;;5052661;28;20512;-58
2023/05/25 07:08:12;;;;;;;7.60;4.60;;;;;;;;;;5052338;28;20447;-61
2023/05/25 07:10:39;;;;;;;6.23;3.93;;;;;;;;;;5052402;28;20909;-57
2023/05/25 07:13:06;;;;;;;12.87;5.30;;;;;;;;;;5052866;28;20854;-60
2023/05/25 07:15:33;;;;;;;7.93;4.80;;;;;;;;;;5052353;28;20487;-58
2023/05/25 07:17:59;;;;;;;7.00;4.47;;;;;;;;;;5052024;28;20463;-62
2023/05/25 07:20:28;;;;;;;10.03;4.20;;;;;;;;;;5052505;28;20549;-59
2023/05/25 07:22:55;;;;;;;7.23;4.50;;;;;;;;;;5052303;28;20938;-61
2023/05/25 07:25:22;;;;;;;8.57;5.13;;;;;;;;;;5052198;28;20463;-60
2023/05/25 07:27:53;;;;;;;8.53;4.10;;;;;;;;;;5052326;28;20958;-59
2023/05/25 07:30:21;;;;;;;11.90;4.60;;;;;;;;;;5053532;28;20454;-60
2023/05/25 07:32:48;;;;;;;10.13;4.73;;;;;;;;;;5056176;28;20450;-52
2023/05/25 07:35:15;;;;;;;8.60;4.80;;;;;;;;;;5055568;28;20840;-55
2023/05/25 07:37:43;;;;;;;12.23;4.03;;;;;;;;;;5055799;28;20453;-53
2023/05/25 07:40:10;;;;;;;6.57;3.43;;;;;;;;;;5055957;28;20546;-55
2023/05/25 07:42:37;;;;;;;5.83;4.40;;;;;;;;;;5056016;28;20459;-59
2023/05/25 07:45:04;;;;;;;6.93;3.20;;;;;;;;;;5055805;28;20480;-57
2023/05/25 07:47:31;;;;;;;9.03;3.90;;;;;;;;;;5055737;28;20440;-57
2023/05/25 07:49:58;;;;;;;7.73;3.80;;;;;;;;;;5055584;28;20454;-60
2023/05/25 07:52:25;;;;;;;6.80;3.70;;;;;;;;;;5055528;28;20478;-59
2023/05/25 07:54:53;;;;;;;12.17;4.70;;;;;;;;;;5055403;28;20565;-59
2023/05/25 07:57:20;;;;;;;16.97;3.73;;;;;;;;;;5055591;28;20491;-59
2023/05/25 07:59:47;;;;;;;5.37;3.00;;;;;;;;;;5055461;28;20458;-59
2023/05/25 08:02:14;;;;;;;7.00;3.63;;;;;;;;;;5055422;28;20451;-55
2023/05/25 08:04:41;;;;;;;6.53;3.90;;;;;;;;;;5055267;28;20495;-58
2023/05/25 08:07:08;;;;;;;7.53;3.27;;;;;;;;;;5055166;28;20551;-58
2023/05/25 08:09:35;;;;;;;6.30;3.43;;;;;;;;;;5055365;28;20543;-59
2023/05/25 08:12:03;;;;;;;8.50;3.70;;;;;;;;;;5055196;28;20462;-60
2023/05/25 08:14:30;;;;;;;8.30;3.60;;;;;;;;;;5055208;28;20455;-60
2023/05/25 08:16:57;;;;;;;5.77;3.53;;;;;;;;;;5055017;28;20449;-58
2023/05/25 08:19:24;;;;;;;8.27;3.23;;;;;;;;;;5054945;28;20495;-60
2023/05/25 08:21:52;;;;;;;7.83;3.37;;;;;;;;;;5055195;28;20455;-60
2023/05/25 08:24:19;;;;;;;10.40;3.77;;;;;;;;;;5055039;28;20965;-57
2023/05/25 08:26:47;;;;;;;5.07;2.93;;;;;;;;;;5055114;28;20455;-59
2023/05/25 08:29:15;;;;;;;4.37;3.27;;;;;;;;;;5054798;28;20518;-61
2023/05/25 08:31:46;;;;;;;8.17;3.30;;;;;;;;;;5054659;28;20543;-60
2023/05/25 08:34:13;;;;;;;8.43;3.30;;;;;;;;;;5055072;28;20551;-62
2023/05/25 08:36:40;;;;;;;6.70;3.20;;;;;;;;;;5054417;28;20526;-60
2023/05/25 08:39:08;;;;;;;10.83;3.50;;;;;;;;;;5054783;28;20547;-61
2023/05/25 08:41:35;;;;;;;5.63;3.60;;;;;;;;;;5053896;28;20812;-61
2023/05/25 08:44:05;;;;;;;6.07;3.90;;;;;;;;;;5054516;28;20455;-61
2023/05/25 08:46:33;;;;;;;6.60;3.50;;;;;;;;;;5054595;28;20459;-59
2023/05/25 08:49:05;;;;;;;5.40;2.50;;;;;;;;;;5054697;28;20449;-60
2023/05/25 08:51:36;;;;;;;6.60;3.40;;;;;;;;;;5054623;28;20543;-59
2023/05/25 08:54:05;;;;;;;8.83;2.90;;;;;;;;;;5054274;28;20481;-60
2023/05/25 08:56:35;;;;;;;9.67;4.03;;;;;;;;;;5054286;28;20537;-60
2023/05/25 08:59:03;;;;;;;5.73;3.10;;;;;;;;;;5054101;28;20459;-58
2023/05/25 09:01:32;;;;;;;11.00;4.00;;;;;;;;;;5054394;28;20480;-58
2023/05/25 09:04:00;;;;;;;2.73;2.40;;;;;;;;;;5054203;28;20539;-59
2023/05/25 09:06:29;;;;;;;4.70;2.97;;;;;;;;;;5054166;28;20441;-60
2023/05/25 09:08:56;;;;;;;7.37;3.20;;;;;;;;;;5054015;28;20444;-60
2023/05/25 09:11:23;;;;;;;5.20;2.63;;;;;;;;;;5054021;28;20455;-59
2023/05/25 09:13:50;;;;;;;6.40;2.77;;;;;;;;;;5054140;28;20510;-60
2023/05/25 09:16:18;;;;;;;8.30;3.83;;;;;;;;;;5054022;28;20549;-60
2023/05/25 09:18:45;;;;;;;6.40;3.20;;;;;;;;;;5053799;28;20459;-60
2023/05/25 09:21:13;;;;;;;8.93;3.73;;;;;;;;;;5053740;28;20447;-60
2023/05/25 09:23:40;;;;;;;8.10;3.23;;;;;;;;;;5053713;28;20484;-60
2023/05/25 09:26:07;;;;;;;8.80;3.20;;;;;;;;;;5053965;28;20786;-60
2023/05/25 09:28:34;;;;;;;7.67;3.47;;;;;;;;;;5053483;28;20459;-60
2023/05/25 09:31:01;;;;;;;6.43;3.20;;;;;;;;;;5053719;28;20455;-60
2023/05/25 09:33:28;;;;;;;8.00;3.50;;;;;;;;;;5053379;28;20539;-58
2023/05/25 09:35:55;;;;;;;6.50;3.50;;;;;;;;;;5053440;28;20498;-59
2023/05/25 09:38:24;;;;;;;5.33;3.20;;;;;;;;;;5053357;28;20449;-60
2023/05/25 09:40:51;;;;;;;4.77;3.53;;;;;;;;;;5053512;28;20535;-59
2023/05/25 09:43:18;;;;;;;8.73;3.40;;;;;;;;;;5053471;28;20537;-61
2023/05/25 09:45:45;;;;;;;9.17;3.73;;;;;;;;;;5053402;28;20556;-60
2023/05/25 09:48:12;;;;;;;5.70;3.30;;;;;;;;;;5053378;28;20632;-59
2023/05/25 09:50:39;;;;;;;5.67;4.50;;;;;;;;;;5052936;28;20470;-59
2023/05/25 09:53:07;;;;;;;11.53;4.00;;;;;;;;;;5052736;28;20484;-61
2023/05/25 09:55:37;;;;;;;6.93;4.17;;;;;;;;;;5053351;28;20480;-61
2023/05/25 09:58:04;;;;;;;11.47;3.60;;;;;;;;;;5053176;28;20460;-60
2023/05/25 10:00:31;;;;;;;11.30;3.77;;;;;;;;;;5053293;28;20455;-60
2023/05/25 10:02:58;;;;;;;7.70;3.80;;;;;;;;;;5053110;28;20464;-60
2023/05/25 10:05:25;;;;;;;9.80;4.70;;;;;;;;;;5053092;28;20544;-59
2023/05/25 10:07:54;;;;;;;5.93;3.50;;;;;;;;;;5053362;28;20887;-60
2023/05/25 10:10:21;;;;;;;8.23;3.90;;;;;;;;;;5053168;28;20449;-62
2023/05/25 10:12:51;;;;;;;9.83;4.00;;;;;;;;;;5053268;28;20507;-66
2023/05/25 10:15:19;;;;;;;7.97;3.80;;;;;;;;;;5053049;28;20477;-61
2023/05/25 10:17:51;;;;;;;5.87;3.77;;;;;;;;;;5053113;28;20468;-61
2023/05/25 10:20:19;;;;;;;6.40;3.53;;;;;;;;;;5052973;28;20928;-60
2023/05/25 10:22:48;;;;;;;10.27;4.50;;;;;;;;;;5052869;28;20459;-61
2023/05/25 10:25:18;;;;;;;10.20;4.37;;;;;;;;;;5070264;28;20459;-58
2023/05/25 10:27:48;;;;;;;8.73;4.70;;;;;;;;;;5073011;28;20452;-60
2023/05/25 10:30:16;;;;;;;4.60;3.47;;;;;;;;;;5073060;28;20494;-60
2023/05/25 10:32:44;;;;;;;6.43;3.67;;;;;;;;;;5072742;28;20487;-59
2023/05/25 10:35:12;;;;;;;7.77;3.53;;;;;;;;;;5073012;28;20567;-59
2023/05/25 10:37:40;;;;;;;6.40;3.43;;;;;;;;;;5072843;28;20448;-59
2023/05/25 10:40:08;;;;;;;7.50;5.87;;;;;;;;;;5072806;28;20452;-61
2023/05/25 10:42:36;;;;;;;6.90;3.60;;;;;;;;;;5072741;28;20447;-60
2023/05/25 10:45:03;;;;;;;7.07;3.70;;;;;;;;;;5072567;28;20455;-62
2023/05/25 10:47:32;;;;;;;5.43;3.77;;;;;;;;;;5072868;28;20450;-61
2023/05/25 10:50:01;;;;;;;7.50;3.60;;;;;;;;;;5072837;28;20448;-60
2023/05/25 10:52:29;;;;;;;6.50;4.00;;;;;;;;;;5072612;28;20498;-60
2023/05/25 10:54:57;;;;;;;5.93;3.60;;;;;;;;;;5072275;28;20476;-59
2023/05/25 10:57:24;;;;;;;13.83;4.03;;;;;;;;;;5072252;28;20575;-59
2023/05/25 10:59:54;;;;;;;8.47;3.97;;;;;;;;;;5072450;28;20850;-60
2023/05/25 11:02:23;;;;;;;5.83;4.00;;;;;;;;;;5072701;28;20546;-62
2023/05/25 11:04:51;;;;;;;7.10;3.80;;;;;;;;;;5072605;28;20452;-61
2023/05/25 11:07:18;;;;;;;14.07;5.30;;;;;;;;;;5076444;28;20549;-61
2023/05/25 11:09:57;;;;;;;8.70;4.40;;;;;;;;;;5076363;28;20544;-62
2023/05/25 11:12:24;;;;;;;8.30;4.50;;;;;;;;;;5076388;28;20462;-62
2023/05/25 11:15:10;;;;;;;7.63;3.90;;;;;;;;;;5076422;28;20497;-62
2023/05/25 11:17:45;;;;;;;8.53;4.37;;;;;;;;;;5076418;28;20534;-59
2023/05/25 11:20:23;;;;;;;6.70;3.73;;;;;;;;;;5076276;28;20455;-60
2023/05/25 11:22:51;;;;;;;6.30;3.83;;;;;;;;;;5076257;28;20862;-60
2023/05/25 11:25:38;;;;;;;9.23;4.47;;;;;;;;;;5076033;28;20462;-59
2023/05/25 11:28:05;;;;;;;11.87;4.20;;;;;;;;;;5075911;28;20455;-60
2023/05/25 11:30:32;;;;;;;7.23;4.33;;;;;;;;;;5076041;28;20481;-59
2023/05/25 11:33:01;;;;;;;5.07;3.47;;;;;;;;;;5075905;28;21015;-59
2023/05/25 11:35:32;;;;;;;8.10;4.50;;;;;;;;;;5075159;28;20450;-60
2023/05/25 11:38:00;;;;;;;7.20;3.63;;;;;;;;;;5076023;28;20553;-58
2023/05/25 11:40:29;;;;;;;8.43;4.80;;;;;;;;;;5075605;28;20951;-58
2023/05/25 11:42:59;;;;;;;7.37;3.70;;;;;;;;;;5075829;28;21038;-58
2023/05/25 11:45:28;;;;;;;9.17;4.60;;;;;;;;;;5075665;28;20499;-58
2023/05/25 11:47:56;;;;;;;5.80;3.70;;;;;;;;;;5075869;28;20502;-58
2023/05/25 11:50:23;;;;;;;8.57;4.57;;;;;;;;;;5075572;28;20452;-58
2023/05/25 11:52:51;;;;;;;8.40;5.37;;;;;;;;;;5075801;28;20483;-58
2023/05/25 11:55:18;;;;;;;7.40;3.83;;;;;;;;;;5075447;28;20479;-61
2023/05/25 11:57:45;;;;;;;8.60;4.50;;;;;;;;;;5075590;28;20939;-60
2023/05/25 12:00:13;;;;;;;7.23;4.13;;;;;;;;;;5075450;28;21093;-61
2023/05/25 12:02:40;;;;;;;10.90;5.27;;;;;;;;;;5075731;28;20785;-61
2023/05/25 12:05:07;;;;;;;7.20;4.67;;;;;;;;;;5075641;28;20800;-61
2023/05/25 12:07:35;;;;;;;9.20;4.67;;;;;;;;;;5075074;28;20452;-61
2023/05/25 12:10:07;;;;;;;8.73;4.40;;;;;;;;;;5075332;28;20483;-62
2023/05/25 12:12:38;;;;;;;8.83;4.10;;;;;;;;;;5075498;28;20517;-62
2023/05/25 12:15:05;;;;;;;5.37;3.47;;;;;;;;;;5075405;28;20534;-62
2023/05/25 12:17:36;;;;;;;6.67;4.20;;;;;;;;;;5075147;28;20484;-61
2023/05/25 12:20:03;;;;;;;4.83;3.97;;;;;;;;;;5075082;28;20535;-61
2023/05/25 12:22:31;;;;;;;7.43;4.03;;;;;;;;;;5075169;28;20444;-61
2023/05/25 12:25:00;;;;;;;6.80;3.57;;;;;;;;;;5074988;28;20456;-62
2023/05/25 12:27:28;;;;;;;5.70;4.03;;;;;;;;;;5074968;28;20483;-62
2023/05/25 12:29:59;;;;;;;6.23;3.83;;;;;;;;;;5074908;28;20487;-62
2023/05/25 12:32:26;;;;;;;5.60;3.87;;;;;;;;;;5074836;28;20447;-59
2023/05/25 12:35:01;;;;;;;6.10;4.20;;;;;;;;;;5074803;28;20460;-59
2023/05/25 12:37:28;;;;;;;6.53;3.90;;;;;;;;;;5074633;28;20483;-60
2023/05/25 12:39:56;;;;;;;10.37;3.73;;;;;;;;;;5074528;28;20476;-59
2023/05/25 12:42:25;;;;;;;10.23;4.50;;;;;;;;;;5074887;28;20811;-59
2023/05/25 12:44:56;;;;;;;9.10;4.00;;;;;;;;;;5074682;28;20471;-54
2023/05/25 12:47:23;;;;;;;5.53;4.33;;;;;;;;;;5074602;28;20539;-52
2023/05/25 12:49:51;;;;;;;5.50;4.30;;;;;;;;;;5074548;28;20454;-61
2023/05/25 12:52:33;;;;;;;9.90;4.50;;;;;;;;;;5074229;28;20452;-61
2023/05/25 12:55:19;;;;;;;7.67;4.77;;;;;;;;;;5074387;28;20482;-60
2023/05/25 12:57:51;;;;;;;6.77;4.20;;;;;;;;;;5074324;28;20570;-61
2023/05/25 13:00:19;;;;;;;5.70;4.23;;;;;;;;;;5074613;28;20813;-60
2023/05/25 13:02:46;;;;;;;7.87;3.80;;;;;;;;;;5074631;28;20850;-61
2023/05/25 13:05:20;;;;;;;5.87;3.80;;;;;;;;;;5074514;28;20491;-60
2023/05/25 13:07:47;;;;;;;4.63;4.33;;;;;;;;;;5074199;28;20935;-61
2023/05/25 13:10:16;;;;;;;6.20;4.00;;;;;;;;;;5074370;28;20520;-61
2023/05/25 13:12:43;;;;;;;6.57;3.97;;;;;;;;;;5074170;28;20804;-60
2023/05/25 13:15:10;;;;;;;5.63;4.10;;;;;;;;;;5073784;28;20443;-60
2023/05/25 13:17:41;;;;;;;5.60;4.13;;;;;;;;;;5073949;28;20505;-61
2023/05/25 13:20:08;;;;;;;8.17;4.00;;;;;;;;;;5074152;28;20456;-59
2023/05/25 13:22:35;;;;;;;9.53;4.63;;;;;;;;;;5074075;28;20443;-59
2023/05/25 13:25:02;;;;;;;6.00;4.17;;;;;;;;;;5074320;28;20444;-59
2023/05/25 13:27:30;;;;;;;4.40;3.90;;;;;;;;;;5073711;28;20935;-60
2023/05/25 13:29:57;;;;;;;9.60;4.40;;;;;;;;;;5073876;28;20532;-61
2023/05/25 13:32:25;;;;;;;6.80;4.30;;;;;;;;;;5073933;28;20444;-61
2023/05/25 13:34:58;;;;;;;5.77;4.50;;;;;;;;;;5073906;28;20471;-60
2023/05/25 13:37:25;;;;;;;6.10;4.00;;;;;;;;;;5073704;28;20483;-61
2023/05/25 13:39:52;;;;;;;11.20;5.17;;;;;;;;;;5073704;28;20961;-61
2023/05/25 13:42:19;;;;;;;6.53;4.47;;;;;;;;;;5073828;28;20447;-61
2023/05/25 13:44:46;;;;;;;6.53;4.20;;;;;;;;;;5073778;28;20878;-61
2023/05/25 13:47:13;;;;;;;6.47;5.63;;;;;;;;;;5073566;28;20456;-59
2023/05/25 13:49:40;;;;;;;9.43;4.77;;;;;;;;;;5073378;28;20459;-59
2023/05/25 13:52:09;;;;;;;7.83;4.00;;;;;;;;;;5073530;28;20807;-60
2023/05/25 13:54:36;;;;;;;5.10;4.20;;;;;;;;;;5073117;28;20472;-60
2023/05/25 13:57:03;;;;;;;6.07;4.47;;;;;;;;;;5073202;28;21002;-60
2023/05/25 13:59:30;;;;;;;6.67;4.63;;;;;;;;;;5073357;28;20467;-59
2023/05/25 14:01:57;;;;;;;6.43;4.33;;;;;;;;;;5073345;28;20476;-60
2023/05/25 14:04:24;;;;;;;5.37;4.20;;;;;;;;;;5073092;28;20542;-60
2023/05/25 14:06:51;;;;;;;8.17;4.27;;;;;;;;;;5073268;28;20547;-59
2023/05/25 14:09:19;;;;;;;6.07;4.63;;;;;;;;;;5073128;28;20542;-59
2023/05/25 14:11:46;;;;;;;8.50;4.73;;;;;;;;;;5073318;28;20547;-60
2023/05/25 14:14:13;;;;;;;5.83;4.30;;;;;;;;;;5073162;28;20451;-60
2023/05/25 14:16:40;;;;;;;6.90;4.43;;;;;;;;;;5073093;28;20836;-60
2023/05/25 14:19:07;;;;;;;4.73;3.70;;;;;;;;;;5073032;28;20484;-60
2023/05/25 14:21:34;;;;;;;6.87;4.70;;;;;;;;;;5072976;28;20487;-60
2023/05/25 14:24:01;;;;;;;4.30;3.90;;;;;;;;;;5072981;28;20527;-60
2023/05/25 14:26:30;;;;;;;5.33;4.17;;;;;;;;;;5072932;28;20528;-60
2023/05/25 14:28:56;;;;;;;6.27;4.40;;;;;;;;;;5073015;28;20448;-60
2023/05/25 14:31:24;;;;;;;8.43;3.90;;;;;;;;;;5072999;28;20493;-60
2023/05/25 14:33:51;;;;;;;6.37;4.37;;;;;;;;;;5072988;28;20850;-60
2023/05/25 14:36:18;;;;;;;7.67;4.47;;;;;;;;;;5072641;28;20462;-60
2023/05/25 14:38:45;;;;;;;7.20;4.37;;;;;;;;;;5073014;28;20542;-59
2023/05/25 14:41:12;;;;;;;4.87;3.53;;;;;;;;;;5072120;28;20866;-59
2023/05/25 14:43:40;;;;;;;5.90;4.07;;;;;;;;;;5073003;28;20860;-60
2023/05/25 14:46:09;;;;;;;5.70;3.77;;;;;;;;;;5072857;28;20459;-60